Latest Weather Observations for Pirlangimpi

IDD60901

Issued at 9:51 am CST Monday 27 June 2016 (issued every 10 minutes, with the page automatically refreshed every 10 minutes)

About weather observations | Map of Darwin area stations | Latest observations for Darwin area | Other Formats
Station Details ID: 014142 Name: PIRLANGIMPI AIRPORT Lat: -11.40 Lon: 130.42 Height: 18.3 m
Data from the previous 72 hours. | See also: Recent months at Pirlangimpi
Date/Time
CST
Temp
°C
App
Temp
°C
Dew
Point
°C
Rel
Hum
%
Delta-T
°C
Wind Press
QNH
hPa
Press
MSL
hPa
Rain since
9am
mm
Dir  Spd
km/h
Gust
km/h
Spd
kts
Gust
kts
27/09:30am 28.0 31.9 22.9 74 3.5 ESE 7 15 4 8 1013.7 1013.6 0.0
27/09:00am 26.3 29.9 22.4 79 2.6 SE 7 13 4 7 1013.6 1013.5 0.0
27/08:30am 24.8 28.7 22.5 87 1.5 SE 6 9 3 5 1013.3 1013.2 0.0
27/08:00am 23.2 27.1 21.8 92 0.9 SSE 4 6 2 3 1013.1 1013.0 0.0
27/07:30am 22.9 26.2 21.5 92 0.9 SE 6 9 3 5 1012.7 1012.6 0.0
27/07:00am 23.1 26.7 22.1 94 0.7 SE 6 9 3 5 1012.3 1012.2 0.0
27/06:30am 23.0 26.7 22.2 95 0.5 SSE 6 7 3 4 1012.0 1011.9 0.0
27/06:00am 22.8 26.4 22.0 95 0.5 SE 6 7 3 4 1011.6 1011.5 0.0
27/05:30am 22.5 26.2 21.5 94 0.7 SSE 4 6 2 3 1011.3 1011.2 0.0
27/05:00am 22.1 26.0 21.1 94 0.7 SE 2 4 1 2 1011.2 1011.1 0.0
27/04:30am 21.6 25.1 20.4 93 0.8 SE 2 4 1 2 1011.0 1010.9 0.0
27/04:00am 21.4 25.2 20.2 93 0.8 CALM 0 0 0 0 1011.1 1011.0 0.0
27/03:30am 21.6 25.5 20.4 93 0.8 CALM 0 0 0 0 1011.1 1011.0 0.0
27/03:00am 21.6 25.5 20.4 93 0.8 CALM 0 0 0 0 1011.3 1011.2 0.0
27/02:30am 21.8 25.7 20.3 91 1.0 CALM 0 0 0 0 1011.7 1011.6 0.0
27/02:00am 21.7 25.5 20.2 91 1.0 CALM 0 0 0 0 1011.9 1011.8 0.0
27/01:30am 21.9 25.8 20.4 91 1.0 CALM 0 0 0 0 1012.0 1011.9 0.0
27/01:00am 21.6 25.3 19.9 90 1.1 CALM 0 0 0 0 1012.2 1012.1 0.0
27/12:30am 21.5 25.1 19.8 90 1.1 CALM 0 0 0 0 1012.4 1012.3 0.0
27/12:00am 21.7 25.3 19.8 89 1.2 CALM 0 0 0 0 1012.5 1012.4 0.0
 
Date/Time
CST
Temp
°C
App
Temp
°C
Dew
Point
°C
Rel
Hum
%
Delta-T
°C
Wind Press
QNH
hPa
Press
MSL
hPa
Rain since
9am
mm
Dir  Spd
km/h
Gust
km/h
Spd
kts
Gust
kts
26/11:30pm 21.9 25.5 19.8 88 1.3 CALM 0 0 0 0 1012.6 1012.5 0.0
26/11:00pm 21.9 25.5 19.8 88 1.3 CALM 0 0 0 0 1012.7 1012.6 0.0
26/10:30pm 22.2 25.7 19.6 85 1.7 CALM 0 0 0 0 1012.6 1012.5 0.0
26/10:00pm 22.7 26.3 19.7 83 1.9 CALM 0 0 0 0 1012.6 1012.5 0.0
26/09:30pm 23.3 26.4 20.2 83 2.0 NE 4 6 2 3 1012.2 1012.1 0.0
26/09:00pm 23.3 26.3 20.1 82 2.1 ENE 4 6 2 3 1012.2 1012.1 0.0
26/08:30pm 23.9 27.2 20.0 79 2.5 NE 2 4 1 2 1012.1 1012.0 0.0
26/08:00pm 24.4 28.1 19.9 76 2.9 CALM 0 0 0 0 1011.8 1011.7 0.0
26/07:30pm 25.4 28.9 19.5 70 3.8 CALM 0 0 0 0 1011.4 1011.3 0.0
26/07:00pm 27.4 30.6 19.7 63 5.0 ESE 2 4 1 2 1011.1 1011.0 0.0
26/06:30pm 28.8 31.1 19.4 56 6.1 E 6 7 3 4 1011.0 1010.9 0.0
26/06:00pm 29.6 31.8 19.6 55 6.5 ESE 7 11 4 6 1010.8 1010.7 0.0
26/05:30pm 30.3 32.1 19.6 52 7.0 E 9 15 5 8 1010.5 1010.4 0.0
26/05:00pm 30.8 31.8 19.5 51 7.4 ESE 13 20 7 11 1010.0 1009.9 0.0
26/04:30pm 31.0 32.7 19.4 50 7.6 ESE 9 15 5 8 1009.8 1009.7 0.0
26/04:00pm 31.3 33.3 19.9 50 7.5 E 9 15 5 8 1009.7 1009.6 0.0
26/03:30pm 31.2 33.3 20.2 52 7.3 E 9 17 5 9 1009.8 1009.7 0.0
26/03:00pm 31.9 33.8 20.5 51 7.6 E 11 20 6 11 1010.0 1009.9 0.0
26/02:30pm 32.6 34.6 20.8 49 7.9 ENE 11 19 6 10 1010.2 1010.1 0.0
26/02:00pm 32.3 33.6 20.2 48 8.0 E 13 22 7 12 1010.6 1010.5 0.0
26/01:30pm 32.1 33.5 20.4 50 7.8 E 13 19 7 10 1011.0 1010.9 0.0
26/01:00pm 31.9 34.8 21.7 54 6.9 ESE 9 19 5 10 1011.5 1011.4 0.0
26/12:30pm 31.6 34.2 21.2 54 7.0 E 9 19 5 10 1012.0 1011.9 0.0
26/12:00pm 30.7 32.1 20.3 53 6.9 E 13 20 7 11 1012.5 1012.4 0.0
26/11:30am 31.1 32.2 21.3 56 6.6 ENE 17 26 9 14 1012.8 1012.7 0.0
26/11:00am 29.9 30.9 21.0 59 5.9 ESE 17 24 9 13 1013.4 1013.3 0.0
26/10:30am 28.9 30.9 22.2 67 4.5 ESE 15 24 8 13 1013.6 1013.5 0.0
26/10:00am 28.9 32.0 23.6 73 3.7 E 13 19 7 10 1013.6 1013.5 0.0
26/09:30am 27.9 31.4 23.5 77 3.0 SE 11 19 6 10 1013.5 1013.4 0.0
26/09:00am 27.0 31.2 23.5 81 2.4 ESE 7 13 4 7 1013.3 1013.2 0.0
26/08:30am 25.8 29.9 23.3 86 1.7 ESE 7 13 4 7 1013.0 1012.9 0.0
26/08:00am 24.1 28.3 22.5 91 1.1 ESE 4 6 2 3 1012.7 1012.6 0.0
26/07:30am 23.5 27.5 22.1 92 0.9 SE 4 7 2 4 1012.5 1012.4 0.0
26/07:00am 23.6 27.3 22.2 92 0.9 SE 6 6 3 3 1012.2 1012.1 0.0
26/06:30am 23.4 27.1 22.2 93 0.8 SSE 6 7 3 4 1011.9 1011.8 0.0
26/06:00am 23.2 27.4 21.8 92 0.9 SSE 2 4 1 2 1011.6 1011.5 0.0
26/05:30am 23.2 27.0 21.6 91 1.1 ESE 4 6 2 3 1011.2 1011.1 0.0
26/05:00am 23.4 28.0 21.8 91 1.1 CALM 0 0 0 0 1011.0 1010.9 0.0
26/04:30am 23.6 27.6 22.0 91 1.1 E 4 6 2 3 1010.8 1010.7 0.0
26/04:00am 24.1 28.3 22.5 91 1.1 ESE 4 6 2 3 1010.8 1010.7 0.0
26/03:30am 23.9 27.8 22.5 92 0.9 ESE 6 6 3 3 1010.8 1010.7 0.0
26/03:00am 23.7 28.6 22.3 92 0.9 CALM 0 0 0 0 1011.0 1010.9 0.0
26/02:30am 24.0 28.9 22.4 91 1.1 CALM 0 0 0 0 1011.3 1011.2 0.0
26/02:00am 24.4 29.5 22.7 90 1.1 CALM 0 0 0 0 1011.4 1011.3 0.0
26/01:30am 24.9 30.1 22.8 88 1.4 CALM 0 0 0 0 1011.6 1011.5 0.0
26/01:00am 25.2 30.5 23.1 88 1.4 CALM 0 0 0 0 1011.6 1011.5 0.0
26/12:30am 24.9 30.1 22.8 88 1.4 CALM 0 0 0 0 1011.8 1011.7 0.0
26/12:00am 25.1 30.3 22.8 87 1.6 CALM 0 0 0 0 1012.0 1011.9 0.0
 
Date/Time
CST
Temp
°C
App
Temp
°C
Dew
Point
°C
Rel
Hum
%
Delta-T
°C
Wind Press
QNH
hPa
Press
MSL
hPa
Rain since
9am
mm
Dir  Spd
km/h
Gust
km/h
Spd
kts
Gust
kts
25/11:30pm 25.3 29.9 23.2 88 1.4 NE 4 6 2 3 1012.0 1011.9 0.0
25/11:00pm 25.1 29.3 23.2 89 1.3 ENE 6 7 3 4 1012.1 1012.0 0.0
25/10:30pm 24.8 29.1 22.7 88 1.4 NE 4 4 2 2 1012.2 1012.1 0.0
25/10:00pm 24.8 29.5 22.7 88 1.4 NE 2 4 1 2 1012.1 1012.0 0.0
25/09:30pm 25.1 29.9 22.8 87 1.6 ENE 2 2 1 1 1011.9 1011.8 0.0
25/09:00pm 25.3 29.8 22.2 83 2.1 E 2 4 1 2 1012.0 1011.9 0.0
25/08:30pm 26.0 30.2 22.5 81 2.4 NE 4 6 2 3 1011.9 1011.8 0.0
25/08:00pm 26.3 30.5 22.4 79 2.6 NE 4 4 2 2 1011.7 1011.6 0.0
25/07:30pm 26.4 31.1 22.0 77 2.9 CALM 0 0 0 0 1011.4 1011.3 0.0
25/07:00pm 27.0 31.3 22.0 74 3.4 NE 2 2 1 1 1011.1 1011.0 0.0
25/06:30pm 27.9 32.5 21.7 69 4.2 CALM 0 0 0 0 1010.8 1010.7 0.0
25/06:00pm 29.7 33.2 21.9 63 5.3 ENE 6 7 3 4 1010.5 1010.4 0.0
25/05:30pm 30.4 33.8 20.9 57 6.3 NE 4 9 2 5 1010.1 1010.0 0.0
25/05:00pm 31.1 33.5 20.1 52 7.3 E 7 9 4 5 1009.8 1009.7 0.0
25/04:30pm 31.4 33.3 19.7 49 7.7 E 9 13 5 7 1009.7 1009.6 0.0
25/04:00pm 32.4 33.8 19.6 46 8.4 E 11 19 6 10 1009.6 1009.5 0.0
25/03:30pm 31.9 33.8 20.5 51 7.6 E 11 17 6 9 1009.7 1009.6 0.0
25/03:00pm 32.5 33.2 19.7 46 8.5 E 15 20 8 11 1009.9 1009.8 0.0
25/02:30pm 31.7 32.6 20.0 50 7.7 ESE 15 24 8 13 1010.2 1010.1 0.0
25/02:00pm 32.1 34.8 21.3 53 7.3 E 9 20 5 11 1010.5 1010.4 0.0
25/01:30pm 30.9 33.2 21.4 57 6.4 ESE 11 19 6 10 1011.0 1010.9 0.0
25/01:00pm 31.4 33.4 21.6 56 6.6 ESE 13 22 7 12 1011.4 1011.3 0.0
25/12:30pm 33.1 34.4 20.9 48 8.2 E 15 22 8 12 1011.7 1011.6 0.0
25/12:00pm 31.3 31.6 20.3 52 7.3 E 19 30 10 16 1012.3 1012.2 0.0
25/11:30am 30.6 31.6 21.7 59 6.0 E 19 33 10 18 1012.7 1012.6 0.0
25/11:00am 30.3 31.9 21.4 59 6.0 E 15 24 8 13 1012.8 1012.7 0.0
25/10:30am 29.5 30.3 21.7 63 5.2 ESE 20 32 11 17 1012.8 1012.7 0.0
25/10:00am 29.0 31.5 22.5 68 4.4 ESE 13 24 7 13 1012.9 1012.8 0.0
25/09:30am 28.6 31.1 23.1 72 3.8 E 15 26 8 14 1012.7 1012.6 0.0
25/09:00am 27.6 30.7 23.6 79 2.7 ESE 13 20 7 11 1012.7 1012.6 0.0
25/08:30am 26.5 31.6 24.0 86 1.7 SE 4 7 2 4 1012.6 1012.5 0.0
25/08:00am 25.6 30.6 23.8 90 1.2 SE 4 6 2 3 1012.4 1012.3 0.0
25/07:30am 24.9 29.7 23.5 92 1.0 SE 4 6 2 3 1012.0 1011.9 0.0
25/07:00am 24.7 29.4 23.3 92 1.0 SE 4 6 2 3 1011.8 1011.7 0.0
25/06:30am 24.6 28.8 23.2 92 0.9 SE 6 7 3 4 1011.5 1011.4 0.0
25/06:00am 24.5 29.0 22.9 91 1.1 SSE 4 6 2 3 1011.4 1011.3 0.0
25/05:30am 24.6 29.1 23.0 91 1.1 SSE 4 6 2 3 1011.4 1011.3 0.0
25/05:00am 24.6 29.3 23.4 93 0.8 SE 4 6 2 3 1011.1 1011.0 0.0
25/04:30am 24.6 29.7 23.4 93 0.8 SE 2 4 1 2 1010.9 1010.8 0.0
25/04:00am 24.4 29.4 23.2 93 0.8 SE 2 4 1 2 1010.8 1010.7 0.0
25/03:30am 24.2 28.7 23.0 93 0.8 SE 4 6 2 3 1010.9 1010.8 0.0
25/03:00am 24.0 28.9 23.0 94 0.7 SE 2 6 1 3 1011.3 1011.2 0.0
25/02:30am 23.5 28.4 22.3 93 0.8 CALM 0 0 0 0 1011.4 1011.3 0.0
25/02:00am 23.5 28.3 22.1 92 0.9 CALM 0 0 0 0 1011.5 1011.4 0.0
25/01:30am 23.4 28.1 22.0 92 0.9 CALM 0 0 0 0 1011.7 1011.6 0.0
25/01:00am 23.6 28.5 22.4 93 0.8 CALM 0 0 0 0 1011.5 1011.4 0.0
25/12:30am 23.8 28.7 22.4 92 0.9 CALM 0 0 0 0 1011.5 1011.4 0.0
25/12:00am 23.9 29.0 22.7 93 0.8 CALM 0 0 0 0 1011.4 1011.3 0.0
 
Date/Time
CST
Temp
°C
App
Temp
°C
Dew
Point
°C
Rel
Hum
%
Delta-T
°C
Wind Press
QNH
hPa
Press
MSL
hPa
Rain since
9am
mm
Dir  Spd
km/h
Gust
km/h
Spd
kts
Gust
kts
24/11:30pm 24.2 29.0 22.8 92 0.9 N 2 6 1 3 1011.4 1011.3 0.0
24/11:00pm 24.3 29.0 22.7 91 1.1 N 2 4 1 2 1011.4 1011.3 0.0
24/10:30pm 24.8 29.5 23.4 92 1.0 N 4 9 2 5 1011.3 1011.2 0.0
24/10:00pm 23.9 28.0 22.2 90 1.1 N 4 6 2 3 1011.3 1011.2 0.0
24/09:30pm 24.3 28.9 22.4 89 1.3 NNW 2 2 1 1 1011.0 1010.9 0.0
24/09:00pm 24.7 29.8 22.6 88 1.4 CALM 0 2 0 1 1010.7 1010.6 0.0
24/08:30pm 25.2 30.2 22.5 85 1.8 CALM 0 0 0 0 1010.6 1010.5 0.0
24/08:00pm 25.8 30.4 22.5 82 2.2 WSW 2 4 1 2 1010.5 1010.4 0.0
24/07:30pm 26.1 30.8 22.0 78 2.7 CALM 0 0 0 0 1010.4 1010.3 0.0
24/07:00pm 27.0 31.7 22.0 74 3.4 CALM 0 4 0 2 1010.3 1010.2 0.0
24/06:30pm 28.3 32.7 22.1 69 4.2 WNW 2 6 1 3 1010.2 1010.1 0.0
24/06:00pm 29.3 33.3 22.0 64 4.9 NW 4 7 2 4 1009.8 1009.7 0.0
24/05:30pm 30.2 34.0 22.4 63 5.3 NW 6 11 3 6 1009.5 1009.4 0.0
24/05:00pm 31.5 35.2 22.2 57 6.3 NW 6 13 3 7 1009.3 1009.2 0.0
24/04:30pm 32.6 36.1 21.8 53 7.3 NW 6 11 3 6 1009.1 1009.0 0.0
24/04:00pm 33.0 34.9 19.8 45 8.7 NW 9 13 5 7 1009.1 1009.0 0.0
24/03:30pm 33.0 34.8 18.4 42 9.5 NW 6 11 3 6 1009.1 1009.0 0.0
24/03:00pm 33.3 35.2 18.6 41 9.6 WNW 6 9 3 5 1009.3 1009.2 0.0
24/02:30pm 33.1 35.2 18.1 41 9.7 SE 4 13 2 7 1009.6 1009.5 0.0
24/02:00pm 31.8 32.6 17.3 42 9.2 SSW 9 13 5 7 1010.1 1010.0 0.0
24/01:30pm 31.5 32.4 18.5 46 8.4 SSW 11 15 6 8 1010.4 1010.3 0.0
24/01:00pm 31.1 32.2 18.1 46 8.4 SSW 9 13 5 7 1011.1 1011.0 0.0
24/12:30pm 31.4 32.9 18.0 44 8.6 SE 7 11 4 6 1011.6 1011.5 0.0
24/12:00pm 30.9 32.2 17.2 43 8.7 SE 6 11 3 6 1012.1 1012.0 0.0
24/11:30am 30.5 30.6 15.4 40 9.3 SE 9 15 5 8 1012.5 1012.4 0.0
24/11:00am 30.3 32.0 18.4 49 7.7 SE 7 11 4 6 1012.9 1012.8 0.0
24/10:30am 29.3 31.3 19.9 57 6.2 SSE 9 13 5 7 1012.9 1012.8 0.0
24/10:00am 28.4 32.1 22.6 71 3.9 S 7 11 4 6 1012.8 1012.7 0.0

Latest Capital City Observations: Canberra | Sydney | Melbourne | Brisbane | Adelaide | Perth | Hobart | Darwin

Other Formats:

Comma delimited format used in spreadsheet applications
http://www.bom.gov.au/fwo/IDD60901/IDD60901.94119.axf

JavaScript Object Notation format (JSON) in row-major order
http://www.bom.gov.au/fwo/IDD60901/IDD60901.94119.json